Time;durP1;ratioP1;P1;durP2;ratioP2;P2;SDS_P1;SDS_P2;PMS_P1;PMS_P2;Temp;Humidity;BMP_temperature;BMP_pressure;BME280_temperature;BME280_humidity;BME280_pressure;Samples;Min_cycle;Max_cycle;Signal;HPM_P1;HPM_P2
2023/06/27 00:00:36;;;;;;;8.10;5.15;;;;;;;17.90;100.00;97416.41;5073496;28;20174;-77
2023/06/27 00:03:01;;;;;;;6.03;4.47;;;;;;;17.88;100.00;97413.84;5055759;28;20538;-77
2023/06/27 00:05:27;;;;;;;10.13;4.78;;;;;;;17.79;100.00;97403.88;5055646;28;20040;-77
2023/06/27 00:07:52;;;;;;;7.55;5.03;;;;;;;17.74;100.00;97412.44;5055501;28;20033;-77
2023/06/27 00:10:18;;;;;;;7.50;4.68;;;;;;;17.73;100.00;97410.72;5055063;28;20103;-77
2023/06/27 00:12:46;;;;;;;8.98;4.75;;;;;;;17.76;100.00;97414.97;5055046;28;20028;-77
2023/06/27 00:15:12;;;;;;;10.15;4.95;;;;;;;17.79;100.00;97407.44;5039143;28;20503;-77
2023/06/27 00:17:40;;;;;;;14.30;5.28;;;;;;;17.82;100.00;97412.56;5038453;28;20028;-77
2023/06/27 00:20:09;;;;;;;10.95;4.82;;;;;;;17.76;100.00;97409.56;5055859;28;20028;-77
2023/06/27 00:22:35;;;;;;;6.03;4.07;;;;;;;17.62;100.00;97408.16;5038653;28;20091;-77
2023/06/27 00:25:00;;;;;;;12.82;4.68;;;;;;;17.50;100.00;97392.16;5034436;28;20029;-76
2023/06/27 00:27:26;;;;;;;9.75;4.47;;;;;;;17.50;100.00;97395.75;5073139;28;20024;-77
2023/06/27 00:29:51;;;;;;;8.75;4.57;;;;;;;17.41;100.00;97391.16;5038476;28;20511;-77
2023/06/27 00:32:17;;;;;;;6.45;4.28;;;;;;;17.49;100.00;97403.97;5055029;28;20035;-77
2023/06/27 00:34:42;;;;;;;9.07;4.72;;;;;;;17.38;100.00;97404.94;5055049;28;20032;-77
2023/06/27 00:37:08;;;;;;;7.43;4.28;;;;;;;17.35;100.00;97406.09;5055010;28;20078;-77
2023/06/27 00:39:33;;;;;;;15.05;5.30;;;;;;;17.40;100.00;97408.38;5055040;28;20400;-78
2023/06/27 00:41:59;;;;;;;10.30;4.85;;;;;;;17.39;100.00;97406.66;5055125;28;20063;-77
2023/06/27 00:44:24;;;;;;;7.00;4.70;;;;;;;17.40;100.00;97413.78;5055049;28;20093;-77
2023/06/27 00:46:51;;;;;;;7.47;4.70;;;;;;;17.47;100.00;97420.38;5054951;28;20036;-77
2023/06/27 00:49:20;;;;;;;9.35;5.25;;;;;;;17.42;100.00;97417.19;5054713;28;20400;-77
2023/06/27 00:51:47;;;;;;;11.57;4.80;;;;;;;17.39;100.00;97420.19;5037051;28;20035;-78
2023/06/27 00:54:13;;;;;;;9.43;5.35;;;;;;;17.31;100.00;97414.63;5035861;28;20016;-77
2023/06/27 00:56:39;;;;;;;12.93;5.32;;;;;;;17.41;100.00;97420.06;5049832;28;20021;-78
2023/06/27 00:59:05;;;;;;;10.20;5.13;;;;;;;17.35;100.00;97416.03;5018376;28;20028;-76
2023/06/27 01:01:31;;;;;;;12.60;4.90;;;;;;;17.27;100.00;97414.06;5034916;28;20480;-77
2023/06/27 01:03:56;;;;;;;11.35;5.15;;;;;;;17.18;100.00;97419.44;5037230;28;20092;-76
2023/06/27 01:06:49;;;;;;;9.32;4.72;;;;;;;17.11;100.00;97423.69;5047630;28;20086;-77
2023/06/27 01:09:19;;;;;;;10.48;4.97;;;;;;;17.17;100.00;97415.00;5057947;28;20036;-77
2023/06/27 01:11:51;;;;;;;9.55;4.45;;;;;;;17.19;100.00;97427.44;5052169;28;20041;-77
2023/06/27 01:14:18;;;;;;;14.40;4.53;;;;;;;17.15;100.00;97417.88;5034485;28;20029;-78
2023/06/27 01:16:45;;;;;;;10.32;4.70;;;;;;;17.06;100.00;97417.84;5018372;28;20174;-78
2023/06/27 01:19:12;;;;;;;9.23;5.00;;;;;;;17.07;100.00;97417.69;5029111;28;20031;-78
2023/06/27 01:21:39;;;;;;;9.98;5.03;;;;;;;16.99;100.00;97413.97;5037658;28;20392;-78
2023/06/27 01:24:07;;;;;;;7.72;5.07;;;;;;;16.94;100.00;97410.84;5053646;28;20028;-78
2023/06/27 01:26:32;;;;;;;17.17;6.03;;;;;;;16.95;100.00;97417.97;5037743;28;20083;-76
2023/06/27 01:28:58;;;;;;;13.27;6.30;;;;;;;16.91;100.00;97416.53;5053859;28;20028;-77
2023/06/27 01:31:33;;;;;;;18.70;6.88;;;;;;;16.96;100.00;97416.94;5035678;28;20111;-77
2023/06/27 01:34:21;;;;;;;18.48;6.88;;;;;;;16.91;100.00;97416.53;5035937;28;20028;-77
2023/06/27 01:36:51;;;;;;;10.27;6.40;;;;;;;16.89;100.00;97407.72;5037020;28;20074;-76
2023/06/27 01:39:19;;;;;;;16.75;7.05;;;;;;;16.97;100.00;97421.38;5058966;28;20382;-76
2023/06/27 01:41:48;;;;;;;15.13;6.90;;;;;;;16.87;100.00;97412.38;5033927;28;20027;-76
2023/06/27 01:44:16;;;;;;;16.02;7.50;;;;;;;16.99;100.00;97430.19;5033862;28;20064;-76
2023/06/27 01:46:41;;;;;;;13.68;7.40;;;;;;;16.95;100.00;97413.38;5025308;28;20447;-77
2023/06/27 01:49:08;;;;;;;15.88;7.10;;;;;;;17.01;100.00;97429.06;5053489;28;20048;-76
2023/06/27 01:51:33;;;;;;;11.95;6.90;;;;;;;16.99;100.00;97422.09;5029472;28;20099;-77
2023/06/27 01:53:59;;;;;;;14.60;7.65;;;;;;;16.98;100.00;97423.09;5035021;28;20036;-77
2023/06/27 01:56:24;;;;;;;14.35;7.22;;;;;;;17.02;100.00;97425.38;5052528;28;20570;-77
2023/06/27 01:58:50;;;;;;;17.42;7.15;;;;;;;16.91;100.00;97417.38;5037567;28;20436;-76
2023/06/27 02:01:16;;;;;;;10.55;6.25;;;;;;;16.85;100.00;97417.94;5017105;28;20025;-77
2023/06/27 02:03:41;;;;;;;13.85;7.20;;;;;;;16.80;100.00;97415.63;5053010;28;20480;-77
2023/06/27 02:06:07;;;;;;;13.77;6.47;;;;;;;16.72;100.00;97418.16;5044954;28;20024;-77
2023/06/27 02:08:32;;;;;;;14.88;5.78;;;;;;;16.70;100.00;97413.91;5047532;28;20039;-77
2023/06/27 02:10:58;;;;;;;14.88;5.63;;;;;;;16.62;100.00;97408.31;5018059;28;20028;-77
2023/06/27 02:13:24;;;;;;;16.05;5.55;;;;;;;16.59;100.00;97408.56;5034521;28;20484;-77
2023/06/27 02:15:49;;;;;;;8.35;5.65;;;;;;;16.55;100.00;97415.25;5026055;28;20511;-77
2023/06/27 02:18:15;;;;;;;10.45;5.13;;;;;;;16.61;100.00;97415.53;5053378;28;20079;-77
2023/06/27 02:20:40;;;;;;;15.05;5.88;;;;;;;16.62;100.00;97411.00;5045458;28;20067;-76
2023/06/27 02:23:06;;;;;;;17.02;6.18;;;;;;;16.55;100.00;97405.28;5043123;28;20107;-76
2023/06/27 02:25:31;;;;;;;14.10;5.35;;;;;;;16.60;100.00;97416.56;5046659;28;20538;-77
2023/06/27 02:27:57;;;;;;;18.80;6.65;;;;;;;16.61;100.00;97422.81;5042552;28;20032;-76
2023/06/27 02:30:22;;;;;;;10.63;5.68;;;;;;;16.60;100.00;97421.94;5032845;28;20108;-76
2023/06/27 02:32:48;;;;;;;13.00;5.72;;;;;;;16.49;100.00;97411.19;5032953;28;20021;-76
2023/06/27 02:35:15;;;;;;;12.23;5.28;;;;;;;16.51;100.00;97424.56;5050624;28;20033;-76
2023/06/27 02:37:43;;;;;;;13.80;6.28;;;;;;;16.49;100.00;97430.09;5034257;28;20032;-76
2023/06/27 02:40:09;;;;;;;13.02;5.53;;;;;;;16.43;100.00;97422.53;5024533;28;20016;-77
2023/06/27 02:42:35;;;;;;;11.98;5.38;;;;;;;16.52;100.00;97432.53;5041134;28;20031;-77
2023/06/27 02:45:00;;;;;;;10.75;5.15;;;;;;;16.55;100.00;97440.38;5032844;28;20028;-76
2023/06/27 02:47:26;;;;;;;9.75;5.53;;;;;;;16.53;100.00;97438.78;5032697;28;20021;-76
2023/06/27 02:49:51;;;;;;;15.82;6.03;;;;;;;16.48;100.00;97433.81;5049719;28;20039;-76
2023/06/27 02:52:17;;;;;;;12.48;5.95;;;;;;;16.40;100.00;97432.72;5052769;28;20036;-78
2023/06/27 02:54:42;;;;;;;16.95;5.53;;;;;;;16.28;100.00;97434.66;5053093;28;20078;-78
2023/06/27 02:57:08;;;;;;;16.00;5.60;;;;;;;16.25;100.00;97424.13;5070408;28;20116;-78
2023/06/27 02:59:34;;;;;;;18.02;6.28;;;;;;;16.35;100.00;97430.44;5036296;28;20115;-78
2023/06/27 03:01:59;;;;;;;22.92;6.15;;;;;;;16.34;100.00;97426.03;5052764;28;20495;-75
2023/06/27 03:04:25;;;;;;;23.33;6.65;;;;;;;16.39;100.00;97434.59;5052369;28;20472;-78
2023/06/27 03:06:50;;;;;;;18.52;6.60;;;;;;;16.38;100.00;97440.97;5070586;28;20020;-78
2023/06/27 03:09:17;;;;;;;13.88;7.20;;;;;;;16.42;100.00;97438.88;5052377;28;20056;-78
2023/06/27 03:11:43;;;;;;;19.52;7.28;;;;;;;16.48;100.00;97446.44;5052778;28;20016;-78
2023/06/27 03:14:08;;;;;;;17.23;6.68;;;;;;;16.55;100.00;97444.97;5052462;28;20147;-78
2023/06/27 03:16:34;;;;;;;30.67;9.00;;;;;;;16.62;100.00;97443.41;5070480;28;20476;-77
2023/06/27 03:18:59;;;;;;;31.02;7.82;;;;;;;16.65;100.00;97427.78;5052507;28;20029;-77
2023/06/27 03:21:25;;;;;;;68.22;7.65;;;;;;;16.69;100.00;97429.25;5052391;28;20024;-78
2023/06/27 03:23:50;;;;;;;27.20;8.02;;;;;;;16.72;100.00;97428.97;5052662;28;20412;-78
2023/06/27 03:26:16;;;;;;;57.28;8.02;;;;;;;16.85;100.00;97430.59;5052188;28;20033;-76
2023/06/27 03:28:41;;;;;;;53.17;7.60;;;;;;;16.91;100.00;97430.88;5052452;28;20107;-77
2023/06/27 03:31:07;;;;;;;22.40;6.93;;;;;;;16.99;100.00;97441.00;5052682;28;20031;-77
2023/06/27 03:33:32;;;;;;;24.35;6.88;;;;;;;16.93;100.00;97428.91;5052280;28;20112;-78
2023/06/27 03:35:58;;;;;;;21.25;8.75;;;;;;;17.08;100.00;97437.47;5070434;28;20473;-77
2023/06/27 03:38:23;;;;;;;19.20;8.23;;;;;;;17.15;100.00;97447.59;5052008;28;20033;-77
2023/06/27 03:40:49;;;;;;;29.08;8.10;;;;;;;17.24;100.00;97451.31;5070035;28;20099;-77
2023/06/27 03:43:15;;;;;;;19.85;7.80;;;;;;;17.43;100.00;97459.50;5052406;28;20111;-77
2023/06/27 03:45:42;;;;;;;44.58;8.15;;;;;;;17.34;100.00;97449.50;5052630;28;20031;-77
2023/06/27 03:48:08;;;;;;;12.70;7.30;;;;;;;17.45;100.00;97452.06;5039088;28;20056;-77
2023/06/27 03:50:33;;;;;;;18.35;8.07;;;;;;;17.53;100.00;97441.44;5073444;28;20032;-77
2023/06/27 03:53:02;;;;;;;18.48;8.65;;;;;;;17.60;100.00;97444.44;5073703;28;20020;-76
2023/06/27 03:55:27;;;;;;;18.10;6.68;;;;;;;17.65;100.00;97448.44;5055438;28;20067;-78
2023/06/27 03:57:53;;;;;;;20.60;7.80;;;;;;;17.71;100.00;97433.50;5073558;28;20437;-77
2023/06/27 04:00:18;;;;;;;16.10;7.45;;;;;;;17.76;100.00;97432.06;5055592;28;20056;-76
2023/06/27 04:02:44;;;;;;;22.02;7.53;;;;;;;17.91;100.00;97442.44;5073516;28;20119;-78
2023/06/27 04:05:09;;;;;;;15.98;8.00;;;;;;;18.13;100.00;97444.88;5056209;28;20016;-80
2023/06/27 04:07:35;;;;;;;14.73;7.85;;;;;;;18.19;100.00;97438.88;5038766;28;20472;-79
2023/06/27 04:10:00;;;;;;;11.77;6.72;;;;;;;18.29;100.00;97437.00;5055389;28;20025;-78
2023/06/27 04:12:26;;;;;;;15.90;7.05;;;;;;;18.27;100.00;97426.31;5038804;28;20077;-78
2023/06/27 04:14:51;;;;;;;13.27;7.10;;;;;;;18.30;100.00;97428.72;5038774;28;20401;-77
2023/06/27 04:17:17;;;;;;;12.65;7.07;;;;;;;18.37;100.00;97432.56;5073391;28;20032;-76
2023/06/27 04:19:42;;;;;;;13.88;6.95;;;;;;;18.54;100.00;97432.84;5055227;28;20059;-77
2023/06/27 04:22:08;;;;;;;13.57;6.93;;;;;;;18.69;100.00;97418.69;5073222;28;20025;-77
2023/06/27 04:24:34;;;;;;;18.15;6.88;;;;;;;18.58;100.00;97408.00;5054907;28;20020;-76
2023/06/27 04:26:59;;;;;;;13.18;6.15;;;;;;;18.76;100.00;97417.09;5055290;28;20028;-82
2023/06/27 04:29:25;;;;;;;15.02;7.60;;;;;;;18.73;100.00;97408.41;5038636;28;20153;-85
2023/06/27 04:31:50;;;;;;;8.23;5.60;;;;;;;18.80;100.00;97413.06;5038437;28;20480;-84
2023/06/27 04:34:16;;;;;;;13.15;6.45;;;;;;;18.80;100.00;97409.50;5036088;28;20184;-85
2023/06/27 04:36:42;;;;;;;9.13;6.13;;;;;;;19.07;100.00;97414.09;5055217;28;20047;-84
2023/06/27 04:39:08;;;;;;;9.75;5.40;;;;;;;19.22;100.00;97409.88;5055622;28;20546;-85
2023/06/27 04:41:34;;;;;;;9.02;5.22;;;;;;;19.25;100.00;97399.56;5056015;28;20143;-85
2023/06/27 04:43:59;;;;;;;10.48;5.57;;;;;;;19.39;100.00;97404.50;5040000;28;20555;-85
2023/06/27 04:46:28;;;;;;;7.07;5.40;;;;;;;19.44;100.00;97406.78;5037005;28;20465;-83
2023/06/27 04:48:58;;;;;;;17.15;6.82;;;;;;;19.50;100.00;97406.16;5055435;28;20473;-84
2023/06/27 04:51:29;;;;;;;20.52;6.75;;;;;;;19.55;100.00;97406.53;5054943;28;20110;-83
2023/06/27 04:53:55;;;;;;;13.77;6.50;;;;;;;19.73;100.00;97401.97;5049634;28;20502;-84
2023/06/27 04:56:21;;;;;;;10.65;5.80;;;;;;;20.24;100.00;97384.91;5038534;28;20036;-77
2023/06/27 04:58:46;;;;;;;9.52;5.93;;;;;;;20.96;100.00;97389.09;5054925;28;20059;-79
2023/06/27 05:01:12;;;;;;;13.90;5.50;;;;;;;21.72;100.00;97375.41;5054693;28;20086;-81
2023/06/27 05:03:37;;;;;;;11.07;5.43;;;;;;;22.23;100.00;97371.53;5037725;28;20058;-79
2023/06/27 05:06:04;;;;;;;10.75;5.80;;;;;;;21.95;100.00;97374.59;5054910;28;20020;-76
2023/06/27 05:08:30;;;;;;;13.27;6.13;;;;;;;22.26;100.00;97368.44;5054799;28;20511;-77
2023/06/27 05:10:56;;;;;;;11.38;5.57;;;;;;;21.63;100.00;97374.53;5062553;28;20480;-77
2023/06/27 05:13:22;;;;;;;15.48;5.97;;;;;;;21.23;100.00;97382.59;5037843;28;20031;-78
2023/06/27 05:15:47;;;;;;;10.60;5.90;;;;;;;21.24;100.00;97377.00;5035990;28;20808;-78
2023/06/27 05:18:14;;;;;;;11.90;6.85;;;;;;;21.58;100.00;97380.50;5035030;28;20109;-77
2023/06/27 05:20:40;;;;;;;8.70;5.63;;;;;;;21.53;100.00;97384.75;5051082;28;20036;-78
2023/06/27 05:23:05;;;;;;;10.25;5.43;;;;;;;22.35;100.00;97381.03;5051381;28;20029;-77
2023/06/27 05:25:31;;;;;;;9.95;4.75;;;;;;;22.75;100.00;97370.09;5034624;28;20483;-76
2023/06/27 05:27:57;;;;;;;13.00;6.03;;;;;;;23.56;100.00;97373.31;5051130;28;20032;-76
2023/06/27 05:30:22;;;;;;;21.50;11.85;;;;;;;24.71;100.00;97369.47;5034829;28;20557;-78
2023/06/27 05:32:48;;;;;;;17.33;6.63;;;;;;;25.29;100.00;97368.63;5034820;28;20094;-77
2023/06/27 05:35:14;;;;;;;12.73;5.38;;;;;;;25.83;100.00;97358.97;5071412;28;20020;-82
2023/06/27 05:37:39;;;;;;;11.20;4.95;;;;;;;26.80;100.00;97356.47;5051238;28;20025;-84
2023/06/27 05:40:06;;;;;;;16.08;8.40;;;;;;;26.73;100.00;97350.06;5035326;28;20397;-83
2023/06/27 05:42:31;;;;;;;64.78;41.40;;;;;;;27.58;100.00;97352.47;5034986;28;20461;-87
2023/06/27 05:44:57;;;;;;;10.75;6.90;;;;;;;27.05;100.00;97351.34;5051695;28;20177;-84
2023/06/27 05:47:22;;;;;;;11.65;6.03;;;;;;;25.33;100.00;97348.88;5034847;28;20035;-81
2023/06/27 05:49:48;;;;;;;9.93;5.60;;;;;;;24.88;100.00;97364.69;5018038;28;20095;-82
2023/06/27 05:52:14;;;;;;;11.88;5.57;;;;;;;25.78;100.00;97352.34;5037649;28;20039;-81
2023/06/27 05:54:41;;;;;;;9.63;5.13;;;;;;;26.15;100.00;97354.88;5048701;28;20032;-82
2023/06/27 05:57:07;;;;;;;13.20;5.32;;;;;;;27.68;100.00;97348.28;5023258;28;20037;-81
2023/06/27 05:59:32;;;;;;;16.67;5.78;;;;;;;28.92;100.00;97346.66;5017490;28;20032;-81
2023/06/27 06:01:58;;;;;;;9.38;4.65;;;;;;;29.21;96.10;97335.16;5042371;28;20037;-80
2023/06/27 06:04:23;;;;;;;19.02;7.63;;;;;;;28.75;99.86;97350.94;5016338;28;20037;-76
2023/06/27 06:06:49;;;;;;;27.55;10.75;;;;;;;29.37;94.87;97340.22;5050575;28;20021;-77
2023/06/27 06:09:14;;;;;;;20.63;8.32;;;;;;;30.00;90.91;97340.31;5062659;28;20423;-76
2023/06/27 06:11:40;;;;;;;11.57;5.63;;;;;;;30.41;88.30;97343.47;5040973;28;20028;-79
2023/06/27 06:14:05;;;;;;;17.15;5.50;;;;;;;31.23;83.56;97342.25;5018262;28;20032;-78
2023/06/27 06:16:34;;;;;;;12.45;5.32;;;;;;;31.01;81.08;97343.78;5038103;28;20507;-77
2023/06/27 06:19:00;;;;;;;12.07;5.05;;;;;;;29.35;91.68;97347.00;5048602;28;20060;-80
2023/06/27 06:21:30;;;;;;;5.53;4.13;;;;;;;29.39;92.01;97343.59;5043475;28;20067;-79
2023/06/27 06:23:56;;;;;;;13.57;4.90;;;;;;;30.03;91.55;97345.41;5049010;28;20032;-80
2023/06/27 06:26:22;;;;;;;6.90;4.38;;;;;;;30.87;82.28;97333.91;5033946;28;20566;-80
2023/06/27 06:28:47;;;;;;;7.80;5.03;;;;;;;31.41;80.31;97338.66;5018111;28;20116;-80
2023/06/27 06:31:16;;;;;;;8.65;4.80;;;;;;;31.07;80.87;97340.94;5049314;28;20036;-80
2023/06/27 06:33:45;;;;;;;18.73;5.18;;;;;;;31.02;77.11;97335.25;5050939;28;20392;-81
2023/06/27 06:36:12;;;;;;;48.97;32.67;;;;;;;31.09;78.22;97335.19;5049878;28;20064;-80
2023/06/27 06:38:38;;;;;;;11.65;3.88;;;;;;;30.36;80.81;97332.22;5034107;28;20581;-79
2023/06/27 06:41:04;;;;;;;24.00;13.90;;;;;;;30.61;79.78;97324.78;5048978;28;20028;-79
2023/06/27 06:43:29;;;;;;;11.68;6.20;;;;;;;31.84;71.04;97321.94;5067602;28;20029;-79
2023/06/27 06:45:55;;;;;;;11.25;4.82;;;;;;;32.14;67.52;97311.72;5032082;28;20086;-80
2023/06/27 06:48:20;;;;;;;13.65;7.05;;;;;;;31.56;71.08;97309.53;5049587;28;20144;-79
2023/06/27 06:50:47;;;;;;;12.45;7.88;;;;;;;32.69;63.66;97304.00;5042339;28;20463;-80
2023/06/27 06:53:13;;;;;;;15.43;7.60;;;;;;;32.90;61.56;97296.97;5030377;28;20438;-79
2023/06/27 06:55:38;;;;;;;10.70;4.63;;;;;;;33.07;59.62;97303.50;5030129;28;20128;-79
2023/06/27 06:58:04;;;;;;;8.93;4.55;;;;;;;32.09;66.12;97297.72;5048378;28;20032;-79
2023/06/27 07:00:30;;;;;;;13.98;4.10;;;;;;;32.64;61.59;97296.38;5033116;28;20031;-80
2023/06/27 07:02:56;;;;;;;5.22;4.05;;;;;;;33.12;60.96;97293.38;5046945;28;20047;-79
2023/06/27 07:05:22;;;;;;;16.30;4.28;;;;;;;33.21;58.26;97291.06;5056592;28;20032;-79
2023/06/27 07:07:47;;;;;;;10.85;5.13;;;;;;;33.73;59.16;97300.22;5045350;28;20408;-80
2023/06/27 07:10:13;;;;;;;19.25;5.60;;;;;;;33.94;57.08;97296.75;5032200;28;20518;-79
2023/06/27 07:12:51;;;;;;;13.77;6.03;;;;;;;32.86;59.45;97304.94;5047905;28;20031;-79
2023/06/27 07:15:42;;;;;;;11.43;4.95;;;;;;;33.38;58.30;97294.75;5047967;28;20045;-79
2023/06/27 07:18:08;;;;;;;9.32;5.93;;;;;;;33.22;59.63;97310.22;5059697;28;20033;-78
2023/06/27 07:20:33;;;;;;;8.40;4.43;;;;;;;33.81;56.89;97305.38;5050023;28;20033;-78
2023/06/27 07:22:59;;;;;;;8.93;4.53;;;;;;;33.44;60.15;97304.88;5053588;28;20036;-79
2023/06/27 07:25:25;;;;;;;7.65;4.72;;;;;;;32.98;58.51;97302.19;5052380;28;20050;-79
2023/06/27 07:27:50;;;;;;;11.55;4.40;;;;;;;33.71;58.65;97303.25;5046477;28;20040;-79
2023/06/27 07:30:16;;;;;;;11.18;4.18;;;;;;;34.45;53.05;97287.44;5028848;28;20045;-79
2023/06/27 07:32:41;;;;;;;6.93;4.15;;;;;;;35.69;50.47;97282.28;5052637;28;20494;-79
2023/06/27 07:35:07;;;;;;;11.15;4.70;;;;;;;34.92;51.42;97289.88;5028356;28;20035;-78
2023/06/27 07:37:33;;;;;;;7.10;4.15;;;;;;;36.22;45.69;97273.13;5046079;28;20497;-78
2023/06/27 07:39:59;;;;;;;11.57;4.20;;;;;;;36.86;44.09;97282.31;5053122;28;20020;-78
2023/06/27 07:42:25;;;;;;;9.10;4.13;;;;;;;36.51;44.79;97279.25;5050444;28;20558;-78
2023/06/27 07:44:51;;;;;;;16.05;4.82;;;;;;;34.35;48.43;97287.25;5052543;28;20036;-77
2023/06/27 07:47:16;;;;;;;8.30;4.45;;;;;;;35.10;47.00;97282.06;5036118;28;20023;-78
2023/06/27 07:49:42;;;;;;;11.73;4.50;;;;;;;35.33;46.94;97284.63;5045923;28;20032;-78
2023/06/27 07:52:09;;;;;;;6.63;4.28;;;;;;;36.66;43.64;97271.88;5048705;28;20024;-78
2023/06/27 07:54:35;;;;;;;13.27;4.82;;;;;;;37.69;42.03;97277.78;5036115;28;20039;-78
2023/06/27 07:57:00;;;;;;;14.63;4.32;;;;;;;37.50;41.79;97271.03;5070408;28;20388;-78
2023/06/27 07:59:26;;;;;;;8.68;4.05;;;;;;;36.32;42.34;97265.72;5067461;28;20038;-78
2023/06/27 08:01:52;;;;;;;8.38;4.07;;;;;;;36.42;41.96;97273.34;5070522;28;20035;-76
2023/06/27 08:04:17;;;;;;;6.63;4.13;;;;;;;36.74;39.41;97267.75;5034061;28;20047;-79
2023/06/27 08:06:43;;;;;;;7.10;3.70;;;;;;;37.43;37.16;97251.72;5070493;28;20028;-78
2023/06/27 08:09:08;;;;;;;4.57;3.80;;;;;;;38.32;34.31;97241.06;5034030;28;20032;-79
2023/06/27 08:11:34;;;;;;;4.55;3.53;;;;;;;38.89;33.48;97239.94;5051056;28;20031;-78
2023/06/27 08:14:00;;;;;;;4.72;3.80;;;;;;;39.17;33.67;97246.84;5070320;28;20039;-78
2023/06/27 08:16:25;;;;;;;4.60;3.60;;;;;;;38.17;34.58;97241.06;5031535;28;20032;-78
2023/06/27 08:18:51;;;;;;;5.80;3.58;;;;;;;37.40;34.81;97246.66;5044488;28;20033;-78
2023/06/27 08:21:17;;;;;;;5.20;3.53;;;;;;;38.44;34.28;97241.66;5032547;28;20056;-78
2023/06/27 08:23:44;;;;;;;4.72;3.65;;;;;;;39.22;32.20;97238.47;5034841;28;20464;-78
2023/06/27 08:26:16;;;;;;;9.02;4.30;;;;;;;40.01;31.71;97236.44;5070489;28;20024;-79
2023/06/27 08:28:42;;;;;;;5.10;3.78;;;;;;;40.03;32.73;97233.31;5050729;28;20086;-78
2023/06/27 08:31:08;;;;;;;7.47;4.10;;;;;;;39.77;33.97;97243.03;5035646;28;20094;-79
2023/06/27 08:33:33;;;;;;;5.93;3.72;;;;;;;39.67;34.35;97243.06;5069596;28;20028;-78
2023/06/27 08:35:59;;;;;;;15.65;4.32;;;;;;;39.62;34.84;97246.72;5035279;28;20035;-78
2023/06/27 08:38:24;;;;;;;6.70;3.97;;;;;;;40.08;34.03;97248.16;5068244;28;20445;-78
2023/06/27 08:40:54;;;;;;;10.60;6.35;;;;;;;39.64;34.50;97244.47;5069854;28;20511;-79
2023/06/27 08:43:20;;;;;;;4.82;3.55;;;;;;;39.71;33.57;97247.00;5052259;28;20034;-78
2023/06/27 08:45:48;;;;;;;7.18;4.43;;;;;;;40.13;32.51;97229.63;5069678;28;20032;-78
2023/06/27 08:48:16;;;;;;;4.18;3.65;;;;;;;39.50;33.52;97237.81;5050400;28;20051;-79
2023/06/27 08:50:42;;;;;;;6.70;4.10;;;;;;;38.60;34.46;97225.69;5032986;28;20385;-78
2023/06/27 08:53:14;;;;;;;6.72;4.20;;;;;;;39.32;31.84;97228.06;5039527;28;20495;-78
2023/06/27 08:55:58;;;;;;;4.00;3.40;;;;;;;39.69;31.86;97227.66;5027420;28;20107;-78
2023/06/27 08:58:28;;;;;;;6.78;3.90;;;;;;;40.27;31.43;97216.66;5069921;28;20108;-78
2023/06/27 09:00:53;;;;;;;5.35;4.00;;;;;;;40.81;30.62;97208.03;5051504;28;20115;-79
2023/06/27 09:03:20;;;;;;;7.63;3.90;;;;;;;39.89;31.35;97210.72;5051672;28;20111;-78
2023/06/27 09:05:47;;;;;;;8.18;3.35;;;;;;;39.31;32.99;97222.78;5051458;28;20029;-79
2023/06/27 09:08:13;;;;;;;4.75;3.78;;;;;;;40.22;32.76;97213.88;5050449;28;20028;-79
2023/06/27 09:10:40;;;;;;;5.38;3.78;;;;;;;40.10;31.78;97214.25;5035535;28;20116;-78
2023/06/27 09:13:06;;;;;;;4.13;3.45;;;;;;;40.95;30.38;97212.66;5034078;28;20041;-79
2023/06/27 09:15:31;;;;;;;6.78;3.63;;;;;;;39.64;31.13;97205.25;5043731;28;20119;-78
2023/06/27 09:17:57;;;;;;;6.53;4.38;;;;;;;40.18;31.39;97218.41;5033988;28;20419;-78
2023/06/27 09:20:23;;;;;;;8.48;4.00;;;;;;;40.01;30.92;97208.41;5017585;28;20024;-79
2023/06/27 09:22:49;;;;;;;11.25;3.60;;;;;;;40.04;30.92;97206.97;5044285;28;20028;-78
2023/06/27 09:25:21;;;;;;;4.13;3.72;;;;;;;39.64;31.57;97224.84;5053750;28;20020;-78
2023/06/27 09:27:47;;;;;;;6.00;3.53;;;;;;;39.84;31.59;97218.34;5054146;28;20029;-79
2023/06/27 09:30:13;;;;;;;3.60;3.28;;;;;;;39.36;32.46;97217.97;5054022;28;20024;-79
2023/06/27 09:32:58;;;;;;;10.15;4.15;;;;;;;40.24;32.47;97222.84;5053896;28;20048;-78
2023/06/27 09:35:25;;;;;;;4.15;3.65;;;;;;;39.41;32.02;97222.75;5038711;28;20409;-79
2023/06/27 09:37:52;;;;;;;5.70;3.53;;;;;;;39.35;33.17;97221.06;5041992;28;20056;-79
2023/06/27 09:40:25;;;;;;;4.20;3.40;;;;;;;40.05;32.01;97211.47;5048052;28;20580;-79
2023/06/27 09:42:50;;;;;;;6.40;3.38;;;;;;;40.46;31.87;97226.00;5054137;28;20048;-78
2023/06/27 09:45:16;;;;;;;4.45;3.38;;;;;;;40.99;31.61;97218.53;5070898;28;20436;-78
2023/06/27 09:47:42;;;;;;;24.80;15.20;;;;;;;40.48;31.44;97209.72;5053106;28;20048;-79
2023/06/27 09:50:08;;;;;;;5.93;4.28;;;;;;;39.99;31.46;97210.63;5053475;28;20035;-79
2023/06/27 09:52:33;;;;;;;5.43;3.88;;;;;;;39.77;31.82;97207.44;5071267;28;20020;-79
2023/06/27 09:54:59;;;;;;;5.30;3.58;;;;;;;39.66;32.23;97216.16;5036981;28;20025;-79
2023/06/27 09:57:26;;;;;;;5.57;3.50;;;;;;;40.38;32.31;97212.63;5070920;28;20027;-79
2023/06/27 09:59:58;;;;;;;3.33;3.00;;;;;;;40.80;31.62;97210.00;5036802;28;20340;-79
2023/06/27 10:02:33;;;;;;;5.57;3.85;;;;;;;41.48;30.67;97213.47;5052819;28;20024;-79
2023/06/27 10:04:58;;;;;;;9.30;3.70;;;;;;;39.24;31.78;97216.63;5045486;28;20036;-79
2023/06/27 10:07:24;;;;;;;5.28;3.25;;;;;;;39.56;32.80;97214.25;5033284;28;20017;-79
2023/06/27 10:09:50;;;;;;;3.40;3.10;;;;;;;39.89;31.24;97210.72;5033415;28;20025;-79
2023/06/27 10:12:16;;;;;;;6.97;4.05;;;;;;;40.95;31.33;97207.06;5033150;28;20035;-78
2023/06/27 10:14:43;;;;;;;8.00;3.80;;;;;;;41.53;30.44;97206.97;5033083;28;20032;-79
2023/06/27 10:17:18;;;;;;;34.95;25.95;;;;;;;42.29;29.49;97203.88;5033566;28;20091;-79
2023/06/27 10:19:46;;;;;;;9.88;6.10;;;;;;;43.17;28.86;97198.06;5023797;28;20040;-79
2023/06/27 10:22:17;;;;;;;4.32;3.67;;;;;;;40.96;29.78;97194.69;5032857;28;20059;-78
2023/06/27 10:24:44;;;;;;;;;;;;;;;40.71;30.93;97200.53;5051048;28;20028;-79
2023/06/27 10:27:13;;;;;;;8.85;4.25;;;;;;;42.45;29.05;97198.84;5032842;28;19967;-79
2023/06/27 10:29:42;;;;;;;4.28;3.60;;;;;;;42.18;29.54;97190.31;5033538;28;20040;-79
2023/06/27 10:32:15;;;;;;;10.65;9.10;;;;;;;42.07;29.31;97198.88;5016648;28;20408;-78
2023/06/27 10:34:42;;;;;;;3.80;3.40;;;;;;;43.32;27.90;97198.94;5066507;28;20052;-79
2023/06/27 10:37:20;;;;;;;8.65;3.65;;;;;;;44.53;26.86;97196.13;5052970;28;20024;-79
2023/06/27 10:40:00;;;;;;;4.47;4.07;;;;;;;43.38;27.79;97187.25;5031812;28;20029;-79
2023/06/27 10:42:28;;;;;;;5.35;3.55;;;;;;;41.77;30.15;97190.91;5038418;28;20028;-79
2023/06/27 10:45:01;;;;;;;5.20;3.58;;;;;;;42.67;29.77;97188.59;5022219;28;20036;-79
2023/06/27 10:47:29;;;;;;;4.28;3.88;;;;;;;42.74;29.19;97185.38;5034234;28;20048;-78
2023/06/27 10:50:01;;;;;;;9.43;3.75;;;;;;;43.22;28.27;97185.88;5032773;28;20078;-80
2023/06/27 10:52:27;;;;;;;6.30;3.53;;;;;;;43.65;27.45;97183.56;5049800;28;20037;-78
2023/06/27 10:55:14;;;;;;;19.45;15.25;;;;;;;44.64;26.92;97175.81;5033475;28;20028;-80
2023/06/27 10:57:43;;;;;;;21.95;4.35;;;;;;;45.66;26.24;97176.59;5033215;28;20108;-79
2023/06/27 11:00:15;;;;;;;5.00;3.88;;;;;;;44.32;26.62;97172.41;5033332;28;20048;-79
2023/06/27 11:02:47;;;;;;;9.95;3.75;;;;;;;43.99;26.94;97175.47;5032619;28;20033;-79
2023/06/27 11:05:37;;;;;;;7.22;4.32;;;;;;;42.98;27.99;97171.97;5036969;28;20492;-79
2023/06/27 11:08:07;;;;;;;8.27;3.90;;;;;;;43.10;27.72;97175.13;5005853;28;20059;-78
2023/06/27 11:10:33;;;;;;;9.50;4.07;;;;;;;44.29;26.29;97167.41;5036643;28;20104;-79
2023/06/27 11:13:33;;;;;;;4.95;4.10;;;;;;;43.01;27.33;97165.72;5054631;28;20476;-79
2023/06/27 11:15:58;;;;;;;6.07;3.97;;;;;;;43.51;27.16;97158.22;4995595;28;20053;-79
2023/06/27 11:18:25;;;;;;;6.30;3.90;;;;;;;42.73;27.65;97152.75;5026830;28;20021;-78
2023/06/27 11:20:50;;;;;;;5.20;4.20;;;;;;;42.60;27.41;97148.78;5005877;28;20067;-78
2023/06/27 11:23:17;;;;;;;5.13;4.10;;;;;;;42.65;27.79;97156.28;5024046;28;20409;-80